Time;durP1;ratioP1;P1;durP2;ratioP2;P2;SDS_P1;SDS_P2;PMS_P1;PMS_P2;Temp;Humidity;BMP_temperature;BMP_pressure;BME280_temperature;BME280_humidity;BME280_pressure;Samples;Min_cycle;Max_cycle;Signal;HPM_P1;HPM_P2
2022/10/23 00:00:33;;;;;;;58.53;29.75;;;;;;;11.11;69.35;95677.00;5038246;28;20041;-76
2022/10/23 00:02:59;;;;;;;51.08;31.20;;;;;;;11.49;69.21;95728.00;5038944;28;20049;-76
2022/10/23 00:05:26;;;;;;;59.47;29.63;;;;;;;11.26;69.28;95693.97;5038822;28;20040;-76
2022/10/23 00:07:53;;;;;;;55.58;30.90;;;;;;;11.56;69.49;95757.75;5017071;28;20141;-75
2022/10/23 00:10:20;;;;;;;65.38;31.25;;;;;;;11.59;69.89;95755.34;5037703;28;20049;-76
2022/10/23 00:12:46;;;;;;;54.72;30.75;;;;;;;11.19;69.74;95679.13;5038098;28;20410;-76
2022/10/23 00:15:13;;;;;;;59.35;30.30;;;;;;;11.64;69.73;95740.47;5038326;28;20110;-76
2022/10/23 00:17:39;;;;;;;68.03;31.45;;;;;;;11.11;69.60;95665.56;5038216;28;20044;-76
2022/10/23 00:20:05;;;;;;;60.40;32.30;;;;;;;11.69;69.50;95751.88;5038535;28;20044;-76
2022/10/23 00:22:31;;;;;;;62.72;31.70;;;;;;;11.72;69.65;95740.75;5017068;28;20041;-76
2022/10/23 00:24:56;;;;;;;65.45;30.60;;;;;;;11.63;69.68;95721.06;5032772;28;20043;-76
2022/10/23 00:27:22;;;;;;;58.92;29.67;;;;;;;11.23;70.19;95668.75;5029755;28;20049;-76
2022/10/23 00:29:47;;;;;;;57.13;29.52;;;;;;;11.43;70.12;95729.06;5035054;28;20568;-76
2022/10/23 00:32:13;;;;;;;57.03;28.55;;;;;;;11.23;69.63;95695.31;5016526;28;20041;-75
2022/10/23 00:34:38;;;;;;;54.10;29.95;;;;;;;11.36;69.99;95707.28;5034861;28;20049;-75
2022/10/23 00:37:03;;;;;;;57.40;31.40;;;;;;;11.29;70.00;95699.56;5019778;28;20122;-76
2022/10/23 00:39:29;;;;;;;61.97;29.80;;;;;;;11.63;69.52;95745.00;5037718;28;20422;-76
2022/10/23 00:41:54;;;;;;;61.08;30.38;;;;;;;11.21;69.46;95663.69;5034537;28;20037;-75
2022/10/23 00:44:20;;;;;;;48.00;28.58;;;;;;;11.59;69.80;95736.75;5039333;28;20135;-76
2022/10/23 00:46:45;;;;;;;47.38;28.95;;;;;;;10.83;69.78;95625.19;5057159;28;20525;-75
2022/10/23 00:49:11;;;;;;;57.40;29.75;;;;;;;10.97;69.55;95633.44;5039077;28;20044;-76
2022/10/23 00:51:42;;;;;;;48.03;28.90;;;;;;;11.69;69.76;95732.50;5057562;28;20043;-75
2022/10/23 00:54:08;;;;;;;48.13;28.33;;;;;;;10.98;69.66;95642.22;5048376;28;20137;-76
2022/10/23 00:56:36;;;;;;;53.95;27.52;;;;;;;11.46;70.05;95717.88;5017064;28;20049;-75
2022/10/23 00:59:02;;;;;;;45.55;25.25;;;;;;;11.41;69.44;95716.03;5045872;28;20044;-75
2022/10/23 01:01:27;;;;;;;42.00;22.40;;;;;;;11.11;68.88;95716.81;5060698;28;20445;-76
2022/10/23 01:03:53;;;;;;;51.03;26.50;;;;;;;11.17;70.11;95768.84;5061169;28;20553;-75
2022/10/23 01:06:34;;;;;;;62.78;31.90;;;;;;;10.74;70.41;95684.34;5058193;28;20049;-75
2022/10/23 01:09:09;;;;;;;71.85;34.55;;;;;;;11.00;69.78;95687.84;5039174;28;20541;-76
2022/10/23 01:11:43;;;;;;;67.13;35.97;;;;;;;11.41;69.62;95755.88;5057034;28;20048;-76
2022/10/23 01:14:14;;;;;;;63.40;33.90;;;;;;;11.50;69.43;95761.47;5031496;28;20172;-75
2022/10/23 01:17:08;;;;;;;71.38;34.35;;;;;;;11.57;68.42;95784.03;5042325;28;20578;-76
2022/10/23 01:19:36;;;;;;;57.80;31.95;;;;;;;11.58;68.20;95784.84;5061638;28;20033;-76
2022/10/23 01:22:11;;;;;;;64.15;34.22;;;;;;;11.63;67.87;95784.84;5042902;28;20037;-76
2022/10/23 01:25:15;;;;;;;56.40;32.25;;;;;;;11.67;67.62;95790.44;5043799;28;20048;-76
2022/10/23 01:27:46;;;;;;;57.17;30.85;;;;;;;11.33;67.69;95737.81;4959099;28;20070;-76
2022/10/23 01:30:15;;;;;;;56.45;30.55;;;;;;;11.55;67.52;95791.47;4958580;28;20132;-76
2022/10/23 01:32:55;;;;;;;61.25;31.67;;;;;;;11.62;66.93;95796.53;4992358;28;20092;-76
2022/10/23 01:35:30;;;;;;;64.75;29.70;;;;;;;11.07;67.68;95784.72;5027709;28;20072;-76
2022/10/23 01:38:22;;;;;;;56.95;30.30;;;;;;;10.97;67.77;95768.81;5034321;28;20128;-76
2022/10/23 01:41:20;;;;;;;57.42;29.20;;;;;;;11.33;67.96;95819.31;5040190;28;20126;-76
2022/10/23 01:44:03;;;;;;;51.92;28.00;;;;;;;11.06;67.79;95777.81;5018688;28;20175;-76
2022/10/23 01:46:31;;;;;;;53.13;28.00;;;;;;;11.29;67.26;95812.94;5040706;28;20048;-76
2022/10/23 01:48:59;;;;;;;50.60;26.50;;;;;;;10.59;67.88;95719.59;5040924;28;20454;-77
2022/10/23 01:51:27;;;;;;;60.45;30.63;;;;;;;11.26;67.66;95822.22;5040956;28;20037;-74
2022/10/23 01:53:56;;;;;;;53.15;27.98;;;;;;;11.26;68.03;95793.03;5041914;28;20056;-75
2022/10/23 01:56:27;;;;;;;56.47;27.23;;;;;;;11.34;67.56;95789.84;5067951;28;20056;-75
2022/10/23 01:58:55;;;;;;;59.05;29.90;;;;;;;10.69;67.70;95706.34;5045236;28;20040;-75
2022/10/23 02:01:24;;;;;;;55.22;28.85;;;;;;;10.83;67.92;95723.34;5043762;28;20052;-74
2022/10/23 02:03:51;;;;;;;48.03;26.73;;;;;;;11.35;67.44;95818.00;5055829;28;20048;-75
2022/10/23 02:06:17;;;;;;;57.35;27.42;;;;;;;11.10;66.98;95754.22;5042654;28;20521;-76
2022/10/23 02:08:43;;;;;;;49.85;27.20;;;;;;;11.38;67.17;95801.53;5041644;28;20041;-76
2022/10/23 02:11:18;;;;;;;51.47;28.33;;;;;;;11.46;66.65;95805.53;5022852;28;20103;-76
2022/10/23 02:13:54;;;;;;;51.05;27.58;;;;;;;11.51;66.79;95813.53;5041300;28;20152;-76
2022/10/23 02:16:51;;;;;;;49.13;26.73;;;;;;;11.50;67.22;95817.25;5028524;28;20502;-76
2022/10/23 02:19:28;;;;;;;47.28;25.42;;;;;;;11.52;67.33;95815.91;5055690;28;20139;-75
2022/10/23 02:22:08;;;;;;;42.97;24.88;;;;;;;11.45;67.33;95812.69;5061299;28;20506;-75
2022/10/23 02:24:49;;;;;;;45.40;24.30;;;;;;;11.40;67.23;95794.09;5061079;28;20115;-75
2022/10/23 02:27:22;;;;;;;47.40;25.85;;;;;;;11.26;67.28;95771.78;5061590;28;20115;-75
2022/10/23 02:29:53;;;;;;;48.95;24.48;;;;;;;11.22;66.87;95752.13;5061235;28;20047;-76
2022/10/23 02:32:23;;;;;;;47.22;24.40;;;;;;;11.64;66.76;95812.22;5042272;28;20058;-75
2022/10/23 02:34:49;;;;;;;43.22;24.35;;;;;;;11.44;67.14;95797.06;5042436;28;20040;-75
2022/10/23 02:37:14;;;;;;;42.55;25.10;;;;;;;11.39;67.44;95821.72;5042904;28;20082;-75
2022/10/23 02:39:40;;;;;;;41.30;25.20;;;;;;;11.01;67.70;95775.16;5060803;28;20117;-75
2022/10/23 02:42:13;;;;;;;40.63;23.20;;;;;;;11.31;67.71;95835.50;5060441;28;20078;-76
2022/10/23 02:44:57;;;;;;;46.47;21.70;;;;;;;11.41;67.21;95824.91;5042858;28;20165;-76
2022/10/23 02:47:38;;;;;;;40.28;22.17;;;;;;;11.54;66.83;95829.72;5042887;28;20469;-76
2022/10/23 02:50:20;;;;;;;44.97;22.45;;;;;;;11.36;66.95;95790.41;5061450;28;20513;-76
2022/10/23 02:53:04;;;;;;;42.60;23.58;;;;;;;11.49;66.38;95792.53;5042108;28;20775;-76
2022/10/23 02:55:42;;;;;;;36.53;20.95;;;;;;;11.80;66.08;95833.25;5017714;28;20053;-76
2022/10/23 02:58:26;;;;;;;40.05;23.80;;;;;;;11.84;66.17;95817.56;5056038;28;20071;-76
2022/10/23 03:00:58;;;;;;;41.60;23.45;;;;;;;11.76;65.57;95810.91;5060730;28;20131;-76
2022/10/23 03:03:32;;;;;;;42.05;21.95;;;;;;;11.82;65.72;95817.84;5039154;28;20782;-76
2022/10/23 03:05:58;;;;;;;43.38;22.27;;;;;;;11.96;65.55;95834.84;5040253;28;20419;-76
2022/10/23 03:08:23;;;;;;;35.92;20.92;;;;;;;11.87;65.34;95809.06;5040276;28;20041;-76
2022/10/23 03:10:50;;;;;;;42.53;22.58;;;;;;;11.70;65.59;95796.00;5029652;28;20051;-76
2022/10/23 03:13:16;;;;;;;38.25;21.65;;;;;;;11.75;65.97;95822.59;5041842;28;20051;-76
2022/10/23 03:15:42;;;;;;;40.75;21.63;;;;;;;11.93;65.66;95842.56;5060355;28;20053;-76
2022/10/23 03:18:07;;;;;;;44.38;23.05;;;;;;;11.66;66.22;95818.84;5060467;28;20109;-76
2022/10/23 03:20:33;;;;;;;50.08;23.05;;;;;;;11.56;66.19;95806.34;5060349;28;20044;-77
2022/10/23 03:22:58;;;;;;;37.70;22.02;;;;;;;11.36;66.03;95766.50;5041765;28;20040;-76
2022/10/23 03:25:24;;;;;;;41.65;21.98;;;;;;;11.64;66.34;95807.69;5060125;28;20449;-76
2022/10/23 03:27:49;;;;;;;42.22;22.98;;;;;;;11.57;66.29;95815.94;5041666;28;20040;-76
2022/10/23 03:30:15;;;;;;;40.88;21.88;;;;;;;11.47;66.17;95794.66;5059910;28;20709;-76
2022/10/23 03:32:40;;;;;;;38.58;22.38;;;;;;;11.70;67.02;95861.63;5041680;28;20127;-76
2022/10/23 03:35:06;;;;;;;43.65;21.63;;;;;;;11.67;67.54;95860.31;5041614;28;20122;-75
2022/10/23 03:37:31;;;;;;;43.90;21.23;;;;;;;11.74;67.26;95860.06;5041718;28;20691;-75
2022/10/23 03:39:57;;;;;;;40.95;21.15;;;;;;;11.80;67.07;95857.16;5060771;28;20051;-75
2022/10/23 03:42:22;;;;;;;44.50;21.65;;;;;;;11.78;66.79;95851.31;5043059;28;20036;-75
2022/10/23 03:44:48;;;;;;;37.70;21.90;;;;;;;11.83;66.93;95853.97;5063396;28;20052;-76
2022/10/23 03:47:13;;;;;;;41.88;21.40;;;;;;;11.48;66.74;95796.25;5043802;28;20127;-76
2022/10/23 03:49:39;;;;;;;44.08;21.65;;;;;;;11.47;67.31;95802.63;5059921;28;20051;-76
2022/10/23 03:52:05;;;;;;;35.53;20.90;;;;;;;11.91;67.15;95855.28;5059155;28;20040;-76
2022/10/23 03:54:31;;;;;;;38.72;20.80;;;;;;;11.76;66.66;95832.16;5059405;28;20048;-76
2022/10/23 03:56:56;;;;;;;31.73;19.42;;;;;;;11.48;66.80;95798.91;5041647;28;20036;-76
2022/10/23 03:59:22;;;;;;;43.67;21.20;;;;;;;11.88;67.06;95863.81;5059757;28;20060;-77
2022/10/23 04:01:48;;;;;;;43.10;20.77;;;;;;;11.48;66.68;95800.75;5028796;28;20073;-75
2022/10/23 04:04:13;;;;;;;34.15;17.88;;;;;;;11.74;66.19;95873.34;5039450;28;20041;-76
2022/10/23 04:06:39;;;;;;;36.63;16.67;;;;;;;11.47;65.24;95823.88;5039413;28;20473;-76
2022/10/23 04:09:05;;;;;;;31.02;15.27;;;;;;;11.78;63.83;95863.78;5039845;28;20601;-76
2022/10/23 04:11:32;;;;;;;41.15;16.02;;;;;;;11.40;63.69;95803.94;5039701;28;20037;-76
2022/10/23 04:13:57;;;;;;;26.95;14.25;;;;;;;11.46;63.09;95814.31;5037759;28;20053;-76
2022/10/23 04:16:23;;;;;;;31.70;13.25;;;;;;;11.57;62.68;95821.25;5021280;28;20106;-76
2022/10/23 04:18:49;;;;;;;35.72;14.38;;;;;;;11.96;62.56;95873.94;5038976;28;20121;-76
2022/10/23 04:21:14;;;;;;;25.50;13.95;;;;;;;11.94;62.25;95866.22;5039423;28;20044;-75
2022/10/23 04:23:40;;;;;;;28.95;13.88;;;;;;;11.63;62.03;95803.44;5038787;28;20037;-75
2022/10/23 04:26:06;;;;;;;40.50;17.77;;;;;;;12.13;62.33;95871.78;5038542;28;20053;-76
2022/10/23 04:28:31;;;;;;;33.83;16.85;;;;;;;12.18;62.37;95884.31;5038926;28;20051;-76
2022/10/23 04:30:56;;;;;;;33.80;16.13;;;;;;;11.68;62.01;95811.41;5039269;28;20060;-76
2022/10/23 04:33:23;;;;;;;27.98;12.68;;;;;;;11.88;60.80;95837.25;5039170;28;20064;-75
2022/10/23 04:35:49;;;;;;;19.77;11.48;;;;;;;12.03;59.86;95852.41;5017682;28;20056;-76
2022/10/23 04:38:14;;;;;;;22.98;12.57;;;;;;;12.22;60.37;95872.06;5027352;28;20044;-76
2022/10/23 04:40:39;;;;;;;36.35;15.88;;;;;;;12.42;60.60;95893.34;5058823;28;20062;-76
2022/10/23 04:43:05;;;;;;;34.25;15.75;;;;;;;12.04;60.67;95830.06;5059175;28;20033;-76
2022/10/23 04:45:30;;;;;;;30.58;15.85;;;;;;;12.02;61.69;95826.88;5059178;28;20426;-76
2022/10/23 04:47:56;;;;;;;34.60;17.70;;;;;;;11.48;62.94;95774.19;5059619;28;20051;-76
2022/10/23 04:50:22;;;;;;;31.20;15.80;;;;;;;11.75;62.86;95817.28;5062925;28;20185;-76
2022/10/23 04:52:47;;;;;;;38.38;15.85;;;;;;;11.93;62.45;95824.75;5063131;28;20497;-76
2022/10/23 04:55:13;;;;;;;31.90;16.02;;;;;;;12.38;62.24;95898.38;5044618;28;20052;-75
2022/10/23 04:57:39;;;;;;;42.10;16.85;;;;;;;12.40;62.42;95899.97;5029000;28;20036;-76
2022/10/23 05:00:07;;;;;;;33.03;15.73;;;;;;;12.37;62.52;95898.66;5048917;28;20050;-76
2022/10/23 05:02:33;;;;;;;34.60;16.60;;;;;;;12.35;62.49;95904.25;5062336;28;20040;-76
2022/10/23 05:04:58;;;;;;;27.83;15.27;;;;;;;12.26;63.06;95897.88;5056030;28;20423;-76
2022/10/23 05:07:23;;;;;;;36.83;15.80;;;;;;;11.96;63.19;95856.13;5043545;28;20383;-76
2022/10/23 05:09:49;;;;;;;36.53;16.67;;;;;;;11.71;63.01;95834.78;5043783;28;20058;-75
2022/10/23 05:12:14;;;;;;;33.92;16.48;;;;;;;11.94;63.14;95866.22;5062540;28;20525;-76
2022/10/23 05:14:40;;;;;;;41.55;16.77;;;;;;;12.21;63.52;95899.72;5041021;28;20060;-76
2022/10/23 05:17:15;;;;;;;32.95;16.25;;;;;;;12.20;63.41;95914.91;5041230;28;20063;-76
2022/10/23 05:19:50;;;;;;;38.00;17.55;;;;;;;12.03;64.03;95914.34;5042799;28;20055;-76
2022/10/23 05:22:16;;;;;;;36.95;18.15;;;;;;;11.76;63.88;95858.75;5041301;28;20060;-76
2022/10/23 05:24:42;;;;;;;44.80;16.67;;;;;;;11.51;63.67;95843.53;5042843;28;20049;-76
2022/10/23 05:27:08;;;;;;;41.45;19.17;;;;;;;11.08;64.24;95807.56;5040869;28;20523;-75
2022/10/23 05:29:33;;;;;;;40.78;18.85;;;;;;;11.89;64.11;95915.91;5040883;28;20120;-75
2022/10/23 05:32:04;;;;;;;35.15;15.95;;;;;;;11.61;63.55;95891.38;5042470;28;20126;-76
2022/10/23 05:34:34;;;;;;;33.28;16.25;;;;;;;11.45;63.17;95873.00;5042277;28;20044;-76
2022/10/23 05:37:01;;;;;;;39.42;16.67;;;;;;;11.59;63.64;95900.69;5040661;28;20049;-76
2022/10/23 05:39:27;;;;;;;25.48;13.75;;;;;;;11.57;62.71;95881.53;5042314;28;20057;-76
2022/10/23 05:41:53;;;;;;;34.85;15.95;;;;;;;11.47;63.33;95873.53;5041826;28;20059;-76
2022/10/23 05:44:19;;;;;;;29.08;15.43;;;;;;;11.73;63.66;95940.81;5041781;28;20033;-75
2022/10/23 05:46:44;;;;;;;33.35;14.93;;;;;;;11.71;63.09;95921.69;5040297;28;20521;-75
2022/10/23 05:49:10;;;;;;;23.98;13.90;;;;;;;11.50;62.66;95891.63;5040927;28;20049;-76
2022/10/23 05:51:37;;;;;;;37.60;13.85;;;;;;;11.66;62.14;95914.50;5040694;28;20175;-76
2022/10/23 05:54:05;;;;;;;30.90;15.48;;;;;;;11.65;61.92;95901.47;5041729;28;20041;-75
2022/10/23 05:56:30;;;;;;;31.15;15.30;;;;;;;12.12;63.10;95963.28;5023436;28;20068;-76
2022/10/23 05:58:56;;;;;;;38.78;18.15;;;;;;;11.91;62.79;95935.03;5019767;28;20050;-76
2022/10/23 06:01:21;;;;;;;46.20;20.23;;;;;;;11.98;62.32;95933.72;5019911;28;20127;-76
2022/10/23 06:03:47;;;;;;;37.78;19.55;;;;;;;12.24;61.92;95965.66;5036407;28;20071;-77
2022/10/23 06:06:12;;;;;;;37.33;18.00;;;;;;;11.98;61.96;95928.41;5039853;28;20044;-77
2022/10/23 06:08:38;;;;;;;49.30;19.50;;;;;;;12.24;61.84;95945.19;5039530;28;20056;-77
2022/10/23 06:11:06;;;;;;;33.55;17.70;;;;;;;12.51;61.74;95989.38;5042352;28;20056;-75
2022/10/23 06:13:31;;;;;;;36.35;18.75;;;;;;;12.59;61.56;95986.16;5040363;28;20044;-75
2022/10/23 06:15:57;;;;;;;44.22;18.98;;;;;;;12.20;61.61;95933.50;5043140;28;20796;-76
2022/10/23 06:18:22;;;;;;;37.45;19.20;;;;;;;12.71;61.36;96000.03;5060768;28;20044;-76
2022/10/23 06:20:47;;;;;;;43.50;18.33;;;;;;;12.66;61.09;95997.38;5062050;28;20044;-76
2022/10/23 06:23:13;;;;;;;43.53;18.15;;;;;;;12.68;61.15;95972.06;5061462;28;20137;-76
2022/10/23 06:25:38;;;;;;;42.13;19.20;;;;;;;12.11;60.87;95873.13;5061830;28;20071;-76
2022/10/23 06:28:04;;;;;;;45.92;18.05;;;;;;;12.87;61.46;95980.31;5061188;28;20523;-77
2022/10/23 06:30:29;;;;;;;42.95;17.70;;;;;;;12.81;61.74;95969.94;5061440;28;20483;-77
2022/10/23 06:32:55;;;;;;;36.22;14.95;;;;;;;12.66;62.07;95931.59;5060850;28;20467;-76
2022/10/23 06:35:20;;;;;;;31.23;13.80;;;;;;;13.12;63.63;95984.81;5061257;28;20973;-76
2022/10/23 06:37:45;;;;;;;43.38;13.73;;;;;;;13.04;64.57;95953.41;5061214;28;20071;-76
2022/10/23 06:40:11;;;;;;;31.20;13.13;;;;;;;13.24;64.41;95976.56;5061234;28;20049;-76
2022/10/23 06:42:37;;;;;;;25.65;9.82;;;;;;;13.57;65.39;95996.44;5061256;28;20047;-77
2022/10/23 06:45:02;;;;;;;17.60;9.35;;;;;;;13.08;65.47;95898.53;5061509;28;20052;-76
2022/10/23 06:47:28;;;;;;;18.77;9.13;;;;;;;13.41;65.98;95924.56;5061918;28;20091;-76
2022/10/23 06:49:53;;;;;;;24.48;8.57;;;;;;;13.94;66.05;96002.16;5037468;28;20048;-76
2022/10/23 06:52:19;;;;;;;16.88;8.52;;;;;;;14.00;66.45;96001.03;5023384;28;20049;-75
2022/10/23 06:54:44;;;;;;;19.33;8.90;;;;;;;13.77;66.45;95954.50;5019413;28;20123;-77
2022/10/23 06:57:09;;;;;;;19.73;8.15;;;;;;;13.98;66.30;95971.19;5029525;28;20041;-75
2022/10/23 06:59:35;;;;;;;14.13;8.18;;;;;;;14.17;66.40;95993.50;5025138;28;20087;-75
2022/10/23 07:02:00;;;;;;;20.30;7.95;;;;;;;14.38;66.26;96015.53;5031653;28;20048;-75
2022/10/23 07:04:26;;;;;;;14.40;8.77;;;;;;;14.34;66.50;96006.47;5039696;28;20106;-75
2022/10/23 07:06:55;;;;;;;17.13;7.70;;;;;;;14.58;66.22;96007.38;5040260;28;20128;-76
2022/10/23 07:09:20;;;;;;;13.73;8.20;;;;;;;14.40;65.49;95961.88;5040557;28;20043;-76
2022/10/23 07:11:46;;;;;;;19.00;8.00;;;;;;;14.81;65.12;96015.75;5039251;28;20113;-76
2022/10/23 07:14:11;;;;;;;19.55;8.05;;;;;;;14.47;65.20;95962.38;5040094;28;20057;-76
2022/10/23 07:16:37;;;;;;;17.08;7.65;;;;;;;14.74;64.86;95977.88;5042499;28;20045;-76
2022/10/23 07:19:02;;;;;;;15.80;7.20;;;;;;;14.83;65.11;95995.72;5045713;28;20078;-76
2022/10/23 07:21:30;;;;;;;15.48;7.53;;;;;;;14.68;64.78;95993.16;5042198;28;20054;-76
2022/10/23 07:23:57;;;;;;;13.57;7.53;;;;;;;14.90;64.62;96001.53;5040514;28;20045;-77
2022/10/23 07:26:23;;;;;;;13.50;7.82;;;;;;;14.92;64.84;96001.25;5043407;28;20045;-77
2022/10/23 07:28:53;;;;;;;15.65;8.02;;;;;;;15.00;65.12;96014.00;5042339;28;20143;-77
2022/10/23 07:31:22;;;;;;;20.02;7.82;;;;;;;15.09;64.73;96015.00;5060233;28;20124;-77
2022/10/23 07:33:49;;;;;;;20.08;9.55;;;;;;;15.09;65.35;96009.66;5060082;28;20758;-76
2022/10/23 07:36:14;;;;;;;22.15;9.52;;;;;;;14.84;65.14;95972.47;5059850;28;20044;-77
2022/10/23 07:38:40;;;;;;;18.83;7.40;;;;;;;15.22;64.40;96010.84;5041559;28;20101;-75
2022/10/23 07:41:06;;;;;;;15.82;7.90;;;;;;;15.21;64.13;96011.94;5041061;28;20087;-76
2022/10/23 07:43:32;;;;;;;17.70;9.00;;;;;;;15.26;64.41;96017.22;5042155;28;20238;-76
2022/10/23 07:45:58;;;;;;;13.50;7.43;;;;;;;15.07;63.91;95972.53;5040367;28;20049;-76
2022/10/23 07:48:26;;;;;;;14.65;7.03;;;;;;;15.27;63.00;95998.22;5059254;28;20577;-77
2022/10/23 07:50:51;;;;;;;15.02;6.93;;;;;;;15.37;62.27;95995.47;5041472;28;20055;-77
2022/10/23 07:53:19;;;;;;;15.38;6.80;;;;;;;14.99;61.97;95922.38;5060089;28;20040;-77
2022/10/23 07:55:54;;;;;;;13.57;7.20;;;;;;;15.42;61.25;95974.00;5037717;28;20048;-77
2022/10/23 07:58:20;;;;;;;11.32;6.63;;;;;;;15.44;60.54;95945.13;5024946;28;20569;-77
2022/10/23 08:00:51;;;;;;;16.98;7.35;;;;;;;15.74;60.39;95994.00;5027198;28;20032;-77
2022/10/23 08:03:17;;;;;;;19.58;6.00;;;;;;;15.98;60.19;96042.94;5058981;28;20430;-76
2022/10/23 08:05:43;;;;;;;17.55;6.03;;;;;;;15.55;60.38;95934.34;5057992;28;20716;-77
2022/10/23 08:08:08;;;;;;;14.63;5.65;;;;;;;15.62;60.00;95961.53;5059562;28;20048;-76
2022/10/23 08:10:33;;;;;;;14.90;5.70;;;;;;;16.17;59.94;96008.97;5041686;28;20047;-77
2022/10/23 08:12:59;;;;;;;11.95;5.35;;;;;;;15.48;60.04;95885.75;5059145;28;20048;-77
2022/10/23 08:15:25;;;;;;;12.95;5.80;;;;;;;15.70;60.43;95934.16;5059544;28;20106;-77
2022/10/23 08:17:50;;;;;;;12.70;4.97;;;;;;;16.21;60.57;96015.34;5059904;28;20145;-77
2022/10/23 08:20:16;;;;;;;23.15;6.00;;;;;;;15.70;60.45;95951.00;5064162;28;20033;-76
2022/10/23 08:22:41;;;;;;;13.98;5.45;;;;;;;15.98;60.48;95993.97;5053312;28;20040;-76
2022/10/23 08:25:07;;;;;;;11.50;5.00;;;;;;;16.23;60.56;96008.91;5062875;28;20395;-77
2022/10/23 08:27:32;;;;;;;22.40;5.70;;;;;;;16.32;60.00;95999.16;5038913;28;20053;-77
2022/10/23 08:29:58;;;;;;;14.57;5.88;;;;;;;16.25;60.40;95980.75;5020930;28;20056;-77
2022/10/23 08:32:23;;;;;;;8.85;5.47;;;;;;;16.33;60.20;95974.75;5017020;28;20041;-76
2022/10/23 08:34:49;;;;;;;16.80;6.38;;;;;;;16.18;60.01;95981.13;5018569;28;20511;-76
2022/10/23 08:37:14;;;;;;;9.77;5.25;;;;;;;16.52;60.21;96028.28;5025511;28;20055;-76
2022/10/23 08:39:40;;;;;;;11.55;5.78;;;;;;;16.30;60.62;95995.97;5040700;28;20040;-76
2022/10/23 08:42:05;;;;;;;18.55;6.32;;;;;;;16.17;60.47;95976.06;5040337;28;20044;-76
2022/10/23 08:44:53;;;;;;;17.83;5.90;;;;;;;16.36;60.39;96003.63;5055955;28;20313;-76
2022/10/23 08:47:28;;;;;;;13.02;5.80;;;;;;;16.34;60.21;95988.94;5038057;28;20045;-76
2022/10/23 08:50:01;;;;;;;12.07;6.28;;;;;;;16.12;60.21;95965.41;5038512;28;20049;-76
2022/10/23 08:52:51;;;;;;;12.75;6.22;;;;;;;16.54;59.98;96021.56;5016683;28;20752;-76
2022/10/23 08:55:30;;;;;;;10.85;5.85;;;;;;;16.40;60.23;95996.59;5021461;28;20040;-76
2022/10/23 08:58:06;;;;;;;12.38;5.93;;;;;;;16.59;60.08;96021.50;5017529;28;20427;-75
2022/10/23 09:00:32;;;;;;;13.25;5.30;;;;;;;16.23;59.62;95944.69;5027543;28;20147;-76
2022/10/23 09:03:02;;;;;;;9.95;5.47;;;;;;;16.56;60.31;95999.84;5039165;28;20525;-76
2022/10/23 09:06:00;;;;;;;10.20;6.40;;;;;;;16.71;60.36;96021.06;5037353;28;20422;-77
2022/10/23 09:08:38;;;;;;;9.30;5.50;;;;;;;16.83;59.50;96026.78;5006310;28;20522;-77
2022/10/23 09:11:27;;;;;;;9.82;5.68;;;;;;;16.58;60.21;95978.94;5058599;28;20071;-77
2022/10/23 09:14:14;;;;;;;9.63;5.30;;;;;;;16.86;59.55;96003.97;5044694;28;20075;-77
2022/10/23 09:17:04;;;;;;;7.65;4.88;;;;;;;16.89;59.24;96006.84;5058789;28;20059;-77
2022/10/23 09:19:30;;;;;;;12.00;6.32;;;;;;;16.70;59.50;95976.66;5059094;28;20060;-77
2022/10/23 09:21:57;;;;;;;8.55;4.93;;;;;;;16.98;58.71;96009.66;5040746;28;20431;-76
2022/10/23 09:24:25;;;;;;;11.63;5.30;;;;;;;16.68;58.44;95946.69;5054668;28;20086;-76
2022/10/23 09:26:52;;;;;;;13.57;5.35;;;;;;;17.01;57.82;96009.09;5039632;28;20075;-77
2022/10/23 09:29:26;;;;;;;9.70;5.00;;;;;;;17.14;58.01;96037.81;5057851;28;20045;-77
2022/10/23 09:31:54;;;;;;;22.70;5.10;;;;;;;16.98;57.25;95983.66;5040335;28;20043;-77
2022/10/23 09:34:22;;;;;;;12.80;5.72;;;;;;;17.03;57.56;95972.06;5041091;28;20106;-78
2022/10/23 09:37:02;;;;;;;12.32;5.40;;;;;;;16.97;57.52;95960.63;5055320;28;20028;-77
2022/10/23 09:39:32;;;;;;;10.65;5.15;;;;;;;17.29;57.10;95988.50;5023966;28;20045;-77
2022/10/23 09:42:01;;;;;;;10.68;4.60;;;;;;;17.28;57.24;95984.22;5042393;28;20178;-77
2022/10/23 09:44:33;;;;;;;10.75;4.53;;;;;;;17.35;55.48;95958.59;5021282;28;20522;-77
2022/10/23 09:47:05;;;;;;;8.90;4.13;;;;;;;17.08;55.49;95918.38;5020456;28;20464;-77
2022/10/23 09:49:33;;;;;;;11.63;4.28;;;;;;;17.70;54.04;95994.69;5041637;28;20689;-77
2022/10/23 09:52:20;;;;;;;6.32;3.65;;;;;;;18.19;52.18;95957.47;5024365;28;20102;-75
2022/10/23 09:54:53;;;;;;;13.10;4.18;;;;;;;19.21;50.27;95999.66;5041403;28;20037;-76
2022/10/23 09:57:37;;;;;;;18.38;3.70;;;;;;;19.86;48.33;95985.56;5041767;28;20037;-76
2022/10/23 10:00:17;;;;;;;12.23;4.10;;;;;;;20.47;46.71;95964.91;5042081;28;20051;-76
2022/10/23 10:02:55;;;;;;;4.75;3.10;;;;;;;21.26;45.05;95975.31;5024825;28;20079;-76
2022/10/23 10:05:22;;;;;;;6.68;3.13;;;;;;;21.74;43.71;95977.69;5042484;28;20044;-77
2022/10/23 10:08:12;;;;;;;8.30;3.65;;;;;;;21.73;42.63;95987.69;5043775;28;20036;-77
2022/10/23 10:10:44;;;;;;;8.05;2.97;;;;;;;21.78;41.98;95990.19;5012428;28;20110;-77
2022/10/23 10:13:18;;;;;;;8.10;3.65;;;;;;;22.10;41.22;95990.72;5063599;28;20055;-76
2022/10/23 10:15:51;;;;;;;4.90;3.13;;;;;;;22.10;41.22;95990.72;5044906;28;20064;-76
2022/10/23 10:18:25;;;;;;;7.65;3.30;;;;;;;22.43;40.71;95953.75;5062977;28;20048;-76
2022/10/23 10:20:59;;;;;;;6.95;2.95;;;;;;;22.39;39.94;95957.44;5209703;22;20035;-77
2022/10/23 10:23:41;;;;;;;3.80;2.42;;;;;;;21.93;39.55;95975.34;5020408;28;20071;-76
2022/10/23 10:26:06;;;;;;;;;;;;;;;21.83;40.25;95954.91;5003693;28;20527;-76
2022/10/23 10:28:46;;;;;;;11.23;3.38;;;;;;;21.88;40.03;95954.75;5020418;28;19939;-76
2022/10/23 10:31:42;;;;;;;6.47;2.80;;;;;;;21.67;40.20;95956.56;5008560;28;20127;-83
2022/10/23 10:34:13;;;;;;;6.18;2.63;;;;;;;21.68;40.02;95943.88;5004485;28;20049;-76
2022/10/23 10:36:46;;;;;;;;;;;;;;;21.71;40.42;95946.72;5016510;28;20041;-76
2022/10/23 10:39:41;;;;;;;5.57;3.08;;;;;;;21.66;40.69;95946.91;5040755;28;19920;-76
2022/10/23 10:42:23;;;;;;;8.32;2.67;;;;;;;21.71;40.40;95954.81;5033445;28;20049;-75
2022/10/23 10:45:00;;;;;;;12.25;2.88;;;;;;;21.66;40.55;95963.13;5041463;28;20101;-76
2022/10/23 10:47:44;;;;;;;5.43;2.90;;;;;;;21.32;41.69;95933.56;5041018;28;20072;-76
2022/10/23 10:50:10;;;;;;;6.93;3.03;;;;;;;21.33;41.19;95957.53;5023079;28;20089;-76
2022/10/23 10:52:52;;;;;;;13.85;3.30;;;;;;;21.07;40.91;95897.44;5022787;28;20064;-76
2022/10/23 10:55:29;;;;;;;6.72;3.25;;;;;;;21.38;41.56;95946.53;5043700;28;20048;-76
2022/10/23 10:57:57;;;;;;;7.90;3.10;;;;;;;21.34;41.81;95934.84;5010733;28;20045;-77
2022/10/23 11:00:23;;;;;;;9.00;3.40;;;;;;;21.12;41.56;95865.69;5003723;28;20052;-76
2022/10/23 11:02:59;;;;;;;6.15;2.92;;;;;;;20.95;41.31;95898.13;5002590;28;20037;-76
2022/10/23 11:05:32;;;;;;;5.60;2.50;;;;;;;20.96;40.84;95894.31;5021453;28;20467;-76
2022/10/23 11:08:21;;;;;;;7.88;2.45;;;;;;;21.26;41.26;95918.66;5040967;28;20040;-76
2022/10/23 11:10:53;;;;;;;13.55;3.08;;;;;;;20.97;40.49;95897.81;5038656;28;20049;-76
2022/10/23 11:13:22;;;;;;;7.50;2.60;;;;;;;21.24;40.27;95921.69;5040914;28;20869;-76
2022/10/23 11:15:47;;;;;;;9.98;2.78;;;;;;;21.07;40.32;95886.66;5041250;28;20057;-76
2022/10/23 11:18:23;;;;;;;9.27;2.58;;;;;;;20.48;41.85;95859.53;5023178;28;20881;-76
2022/10/23 11:21:11;;;;;;;5.97;2.95;;;;;;;21.17;41.24;95905.22;5041313;28;20067;-77
2022/10/23 11:24:11;;;;;;;6.78;3.13;;;;;;;21.21;41.08;95926.94;5022033;28;20040;-76
2022/10/23 11:26:45;;;;;;;4.18;2.67;;;;;;;21.12;41.17;95906.16;5030146;28;20836;-77
2022/10/23 11:29:17;;;;;;;4.18;2.40;;;;;;;21.31;40.68;95899.59;5014820;28;20044;-77
2022/10/23 11:32:24;;;;;;;6.65;3.10;;;;;;;21.32;40.95;95903.88;5040309;28;20048;-76
2022/10/23 11:35:31;;;;;;;11.25;3.17;;;;;;;20.95;41.17;95852.28;5022180;28;20045;-76